createdAt,value
2019-04-06T00:00:16.629Z,96.4
2019-04-06T00:01:16.675Z,96.5
2019-04-06T00:02:16.944Z,96.6
2019-04-06T00:03:17.221Z,96.8
2019-04-06T00:04:16.494Z,96.8
2019-04-06T00:05:16.752Z,96.8
2019-04-06T00:06:17.010Z,97.0
2019-04-06T00:07:16.271Z,97.0
2019-04-06T00:08:16.555Z,96.9
2019-04-06T00:09:16.827Z,96.8
2019-04-06T00:10:17.121Z,96.8
2019-04-06T00:11:17.154Z,96.8
2019-04-06T00:12:16.427Z,96.8
2019-04-06T00:13:16.693Z,96.8
2019-04-06T00:14:16.956Z,96.8
2019-04-06T00:15:17.232Z,96.8
2019-04-06T00:16:16.498Z,97.0
2019-04-06T00:17:16.759Z,97.0
2019-04-06T00:18:17.013Z,97.0
2019-04-06T00:19:16.285Z,96.8
2019-04-06T00:20:16.565Z,96.8
2019-04-06T00:21:16.833Z,97.0
2019-04-06T00:22:17.101Z,97.0
2019-04-06T00:23:16.369Z,96.8
2019-04-06T00:24:16.745Z,96.8
2019-04-06T00:25:17.014Z,96.8
2019-04-06T00:26:16.280Z,96.8
2019-04-06T00:27:16.543Z,96.9
2019-04-06T00:28:16.801Z,97.0
2019-04-06T00:29:17.069Z,97.0
2019-04-06T00:30:16.350Z,97.0
2019-04-06T00:31:16.378Z,97.0
2019-04-06T00:32:16.654Z,97.0
2019-04-06T00:33:16.917Z,97.0
2019-04-06T00:34:17.196Z,96.5
2019-04-06T00:35:16.499Z,96.4
2019-04-06T00:36:16.761Z,96.0
2019-04-06T00:37:17.033Z,95.8
2019-04-06T00:38:16.305Z,95.8
2019-04-06T00:39:16.577Z,95.8
2019-04-06T00:40:16.850Z,95.8
2019-04-06T00:41:16.906Z,95.8
2019-04-06T00:42:17.218Z,95.8
2019-04-06T00:43:16.489Z,95.8
2019-04-06T00:44:17.019Z,95.8
2019-04-06T00:45:16.293Z,95.8
2019-04-06T00:46:16.557Z,95.9
2019-04-06T00:47:16.896Z,95.9
2019-04-06T00:48:17.152Z,95.8
2019-04-06T00:49:16.413Z,95.8
2019-04-06T00:50:16.768Z,95.9
2019-04-06T00:51:16.715Z,96.0
2019-04-06T00:52:16.984Z,96.0
2019-04-06T00:53:17.241Z,96.0
2019-04-06T00:54:17.349Z,96.0
2019-04-06T00:55:16.651Z,96.2
2019-04-06T00:56:16.907Z,96.3
2019-04-06T00:57:17.176Z,96.7
2019-04-06T00:58:16.446Z,96.7
2019-04-06T00:59:16.715Z,96.7
2019-04-06T01:00:16.998Z,96.7
2019-04-06T01:01:17.031Z,96.8
2019-04-06T01:02:16.294Z,96.8
2019-04-06T01:03:16.562Z,96.9
2019-04-06T01:04:16.837Z,97.0
2019-04-06T01:05:17.106Z,97.0
2019-04-06T01:06:16.372Z,97.0
2019-04-06T01:07:16.661Z,97.0
2019-04-06T01:08:16.951Z,97.0
2019-04-06T01:09:17.490Z,96.9
2019-04-06T01:10:16.781Z,97.0
2019-04-06T01:11:16.810Z,96.9
2019-04-06T01:12:17.066Z,96.9
2019-04-06T01:13:16.460Z,96.8
2019-04-06T01:14:16.737Z,96.9
2019-04-06T01:15:17.019Z,96.9
2019-04-06T01:16:16.278Z,97.0
2019-04-06T01:17:16.544Z,96.9
2019-04-06T01:18:16.802Z,96.9
2019-04-06T01:19:17.072Z,96.9
2019-04-06T01:20:16.347Z,96.9
2019-04-06T01:21:16.402Z,96.8
2019-04-06T01:22:16.673Z,96.8
2019-04-06T01:23:16.944Z,96.7
2019-04-06T01:24:17.220Z,96.7
2019-04-06T01:25:16.599Z,96.7
2019-04-06T01:26:16.882Z,96.8
2019-04-06T01:27:17.168Z,96.5
2019-04-06T01:28:16.426Z,96.7
2019-04-06T01:29:16.694Z,96.8
2019-04-06T01:30:16.978Z,96.8
2019-04-06T01:31:17.031Z,96.8
2019-04-06T01:32:16.309Z,96.8
2019-04-06T01:33:16.588Z,96.8
2019-04-06T01:34:16.849Z,96.9
2019-04-06T01:35:17.131Z,96.9
2019-04-06T01:36:16.403Z,96.8
2019-04-06T01:37:16.656Z,96.8
2019-04-06T01:38:16.912Z,96.8
2019-04-06T01:39:17.198Z,96.7
2019-04-06T01:40:16.483Z,96.5
2019-04-06T01:41:16.526Z,96.8
2019-04-06T01:42:16.799Z,96.8
2019-04-06T01:43:17.070Z,96.9
2019-04-06T01:44:16.343Z,96.8
2019-04-06T01:45:16.606Z,96.8
2019-04-06T01:46:16.894Z,96.7
2019-04-06T01:47:16.256Z,96.5
2019-04-06T01:48:16.519Z,96.5
2019-04-06T01:49:16.774Z,96.5
2019-04-06T01:50:17.044Z,96.7
2019-04-06T01:51:17.083Z,96.8
2019-04-06T01:52:16.356Z,96.8
2019-04-06T01:53:16.644Z,96.9
2019-04-06T01:54:16.948Z,97.0
2019-04-06T01:55:17.208Z,97.1
2019-04-06T01:56:19.171Z,97.3
2019-04-06T01:57:17.061Z,97.5
2019-04-06T01:58:16.329Z,97.5
2019-04-06T01:59:16.593Z,97.6
2019-04-06T02:00:16.873Z,97.7
2019-04-06T02:01:16.921Z,97.8
2019-04-06T02:02:17.185Z,97.8
2019-04-06T02:03:16.449Z,97.8
2019-04-06T02:04:16.838Z,97.5
2019-04-06T02:05:17.112Z,97.5
2019-04-06T02:06:16.382Z,97.2
2019-04-06T02:07:16.655Z,96.9
2019-04-06T02:08:16.979Z,96.8
2019-04-06T02:09:17.243Z,96.7
2019-04-06T02:10:16.527Z,96.7
2019-04-06T02:11:16.565Z,96.8
2019-04-06T02:12:16.857Z,96.9
2019-04-06T02:13:17.124Z,97.0
2019-04-06T02:14:16.412Z,97.0
2019-04-06T02:15:16.689Z,96.9
2019-04-06T02:16:16.960Z,97.0
2019-04-06T02:17:17.224Z,97.0
2019-04-06T02:18:16.512Z,97.0
2019-04-06T02:19:16.780Z,97.0
2019-04-06T02:20:17.061Z,97.0
2019-04-06T02:21:17.093Z,97.0
2019-04-06T02:22:16.368Z,97.0
2019-04-06T02:23:16.629Z,97.2
2019-04-06T02:24:16.892Z,97.2
2019-04-06T02:25:17.153Z,97.2
2019-04-06T02:26:16.424Z,97.3
2019-04-06T02:27:16.688Z,97.3
2019-04-06T02:28:16.976Z,97.4
2019-04-06T02:29:16.262Z,97.3
2019-04-06T02:30:16.674Z,97.3
2019-04-06T02:31:17.035Z,97.5
2019-04-06T02:32:16.377Z,97.5
2019-04-06T02:33:16.655Z,97.5
2019-04-06T02:34:16.925Z,97.6
2019-04-06T02:35:17.189Z,97.7
2019-04-06T02:36:16.599Z,97.6
2019-04-06T02:37:16.861Z,97.6
2019-04-06T02:38:17.153Z,97.5
2019-04-06T02:39:16.443Z,97.7
2019-04-06T02:40:16.817Z,97.8
2019-04-06T02:41:16.744Z,97.7
2019-04-06T02:42:17.049Z,97.8
2019-04-06T02:43:16.315Z,97.8
2019-04-06T02:44:16.591Z,97.8
2019-04-06T02:45:17.028Z,97.9
2019-04-06T02:46:16.293Z,97.8
2019-04-06T02:47:16.576Z,97.8
2019-04-06T02:48:16.869Z,97.8
2019-04-06T02:49:17.499Z,97.9
2019-04-06T02:50:16.784Z,97.8
2019-04-06T02:51:16.817Z,97.8
2019-04-06T02:52:17.085Z,97.8
2019-04-06T02:53:16.429Z,97.7
2019-04-06T02:54:16.870Z,97.7
2019-04-06T02:55:17.165Z,97.7
2019-04-06T02:56:16.435Z,97.7
2019-04-06T02:57:16.741Z,97.7
2019-04-06T02:58:17.226Z,97.7
2019-04-06T02:59:16.535Z,97.7
2019-04-06T03:00:16.803Z,97.5
2019-04-06T03:01:16.874Z,97.5
2019-04-06T03:02:17.136Z,97.5
2019-04-06T03:03:16.405Z,97.4
2019-04-06T03:04:16.673Z,97.4
2019-04-06T03:05:16.937Z,97.4
2019-04-06T03:06:17.328Z,97.4
2019-04-06T03:07:16.908Z,97.5
2019-04-06T03:08:17.226Z,97.5
2019-04-06T03:09:16.497Z,97.5
2019-04-06T03:10:16.784Z,97.5
2019-04-06T03:11:16.833Z,97.5
2019-04-06T03:12:17.283Z,97.6
2019-04-06T03:13:16.554Z,97.6
2019-04-06T03:14:16.826Z,97.7
2019-04-06T03:15:17.101Z,97.7
2019-04-06T03:16:16.472Z,97.5
2019-04-06T03:17:16.800Z,97.5
2019-04-06T03:18:17.101Z,97.5
2019-04-06T03:19:16.400Z,97.5
2019-04-06T03:20:16.714Z,97.5
2019-04-06T03:21:16.708Z,97.6
2019-04-06T03:22:17.000Z,97.6
2019-04-06T03:23:16.552Z,97.5
2019-04-06T03:24:16.846Z,97.5
2019-04-06T03:25:17.128Z,97.5
2019-04-06T03:26:16.496Z,97.5
2019-04-06T03:27:16.932Z,97.5
2019-04-06T03:28:17.375Z,97.5
2019-04-06T03:29:16.929Z,97.4
2019-04-06T03:30:17.228Z,97.4
2019-04-06T03:31:16.310Z,97.4
2019-04-06T03:32:16.787Z,97.4
2019-04-06T03:33:17.075Z,97.4
2019-04-06T03:34:22.300Z,97.5
2019-04-06T03:35:16.808Z,97.5
2019-04-06T03:36:17.097Z,97.4
2019-04-06T03:37:16.378Z,97.5
2019-04-06T03:38:16.665Z,97.5
2019-04-06T03:39:17.064Z,97.5
2019-04-06T03:40:16.351Z,97.7
2019-04-06T03:41:16.408Z,97.6
2019-04-06T03:42:16.673Z,97.6
2019-04-06T03:43:16.995Z,97.7
2019-04-06T03:44:16.454Z,97.7
2019-04-06T03:45:16.726Z,97.7
2019-04-06T03:46:17.000Z,97.7
2019-04-06T03:47:16.265Z,97.7
2019-04-06T03:48:16.539Z,97.6
2019-04-06T03:49:16.809Z,97.5
2019-04-06T03:50:17.103Z,97.5
2019-04-06T03:51:17.146Z,97.5
2019-04-06T03:52:16.453Z,97.5
2019-04-06T03:53:16.779Z,97.5
2019-04-06T03:54:17.075Z,97.5
2019-04-06T03:55:16.368Z,97.5
2019-04-06T03:56:16.743Z,97.5
2019-04-06T03:57:17.348Z,97.5
2019-04-06T03:58:16.653Z,97.5
2019-04-06T03:59:16.928Z,97.4
2019-04-06T04:00:17.362Z,97.3
2019-04-06T04:01:16.264Z,97.3
2019-04-06T04:02:16.543Z,97.3
2019-04-06T04:03:16.887Z,97.2
2019-04-06T04:04:17.236Z,97.2
2019-04-06T04:05:16.498Z,97.2
2019-04-06T04:06:16.774Z,97.1
2019-04-06T04:07:17.040Z,97.2
2019-04-06T04:08:16.638Z,97.2
2019-04-06T04:09:16.911Z,97.2
2019-04-06T04:10:17.273Z,97.3
2019-04-06T04:11:17.233Z,97.5
2019-04-06T04:12:16.520Z,97.5
2019-04-06T04:13:16.792Z,97.4
2019-04-06T04:14:17.058Z,97.4
2019-04-06T04:15:16.319Z,97.5
2019-04-06T04:16:16.575Z,97.5
2019-04-06T04:17:16.879Z,97.5
2019-04-06T04:18:17.140Z,97.5
2019-04-06T04:19:16.616Z,97.5
2019-04-06T04:20:16.923Z,97.5
2019-04-06T04:21:16.949Z,97.5
2019-04-06T04:22:17.216Z,97.5
2019-04-06T04:23:16.492Z,97.5
2019-04-06T04:24:16.793Z,97.5
2019-04-06T04:25:17.070Z,97.5
2019-04-06T04:26:16.361Z,97.5
2019-04-06T04:27:30.235Z,97.3
2019-04-06T04:28:16.795Z,97.4
2019-04-06T04:29:17.075Z,97.5
2019-04-06T04:30:32.720Z,97.5
2019-04-06T04:31:16.962Z,97.2
2019-04-06T04:32:17.252Z,97.3
2019-04-06T04:33:16.587Z,97.3
2019-04-06T04:34:16.874Z,97.3
2019-04-06T04:35:19.141Z,97.4
2019-04-06T04:36:16.654Z,97.4
2019-04-06T04:37:16.922Z,97.5
2019-04-06T04:38:17.354Z,97.5
2019-04-06T04:39:16.629Z,97.5
2019-04-06T04:40:16.909Z,97.5
2019-04-06T04:41:16.949Z,97.5
2019-04-06T04:42:17.251Z,97.5
2019-04-06T04:43:16.627Z,97.5
2019-04-06T04:44:16.930Z,97.5
2019-04-06T04:45:17.241Z,97.6
2019-04-06T04:46:16.512Z,97.6
2019-04-06T04:47:16.779Z,97.6
2019-04-06T04:48:17.049Z,97.7
2019-04-06T04:49:16.324Z,97.6
2019-04-06T04:50:16.771Z,97.5
2019-04-06T04:51:16.718Z,97.5
2019-04-06T04:52:16.995Z,97.6
2019-04-06T04:53:16.267Z,97.7
2019-04-06T04:54:16.542Z,97.6
2019-04-06T04:55:16.849Z,97.7
2019-04-06T04:56:17.121Z,97.8
2019-04-06T04:57:16.386Z,97.8
2019-04-06T04:58:16.658Z,97.8
2019-04-06T04:59:16.929Z,97.8
2019-04-06T05:00:17.239Z,97.8
2019-04-06T05:01:17.287Z,97.9
2019-04-06T05:02:16.557Z,98.0
2019-04-06T05:03:16.980Z,98.1
2019-04-06T05:04:17.544Z,98.0
2019-04-06T05:05:16.907Z,97.8
2019-04-06T05:06:17.209Z,97.8
2019-04-06T05:07:16.482Z,97.8
2019-04-06T05:08:16.786Z,97.6
2019-04-06T05:09:17.163Z,97.6
2019-04-06T05:10:16.445Z,97.7
2019-04-06T05:11:16.497Z,97.8
2019-04-06T05:12:16.947Z,97.8
2019-04-06T05:13:17.203Z,97.7
2019-04-06T05:14:16.471Z,97.6
2019-04-06T05:15:16.802Z,97.5
2019-04-06T05:16:17.070Z,97.6
2019-04-06T05:17:16.389Z,97.6
2019-04-06T05:18:16.788Z,97.6
2019-04-06T05:19:17.080Z,97.5
2019-04-06T05:20:16.350Z,97.5
2019-04-06T05:21:16.407Z,97.5
2019-04-06T05:22:16.674Z,97.6
2019-04-06T05:23:16.939Z,97.6
2019-04-06T05:24:17.208Z,97.6
2019-04-06T05:25:16.481Z,97.6
2019-04-06T05:26:16.764Z,97.4
2019-04-06T05:27:17.216Z,97.2
2019-04-06T05:28:16.485Z,97.1
2019-04-06T05:29:16.750Z,97.0
2019-04-06T05:30:17.036Z,97.0
2019-04-06T05:31:17.082Z,97.0
2019-04-06T05:32:16.355Z,96.9
2019-04-06T05:33:16.631Z,96.8
2019-04-06T05:34:16.963Z,96.8
2019-04-06T05:35:17.438Z,96.8
2019-04-06T05:36:16.739Z,96.9
2019-04-06T05:37:17.001Z,97.0
2019-04-06T05:38:16.281Z,96.8
2019-04-06T05:39:16.545Z,96.8
2019-04-06T05:40:16.818Z,96.8
2019-04-06T05:41:16.845Z,96.8
2019-04-06T05:42:17.111Z,96.8
2019-04-06T05:43:16.398Z,96.8
2019-04-06T05:44:16.659Z,96.7
2019-04-06T05:45:17.232Z,96.8
2019-04-06T05:46:16.638Z,96.8
2019-04-06T05:47:17.317Z,96.7
2019-04-06T05:48:16.674Z,96.7
2019-04-06T05:49:16.942Z,96.7
2019-04-06T05:50:17.211Z,96.6
2019-04-06T05:51:16.257Z,96.5
2019-04-06T05:52:16.529Z,96.5
2019-04-06T05:53:17.008Z,96.5
2019-04-06T05:54:16.272Z,96.3
2019-04-06T05:55:16.543Z,96.3
2019-04-06T05:56:16.850Z,96.3
2019-04-06T05:57:17.141Z,96.2
2019-04-06T05:58:16.428Z,96.4
2019-04-06T05:59:16.711Z,96.4
2019-04-06T06:00:16.995Z,96.2
2019-04-06T06:01:17.026Z,96.0
2019-04-06T06:02:16.296Z,95.9
2019-04-06T06:03:16.565Z,95.7
2019-04-06T06:04:16.830Z,95.7
2019-04-06T06:05:17.097Z,95.7
2019-04-06T06:06:16.365Z,95.7
2019-04-06T06:07:16.686Z,95.5
2019-04-06T06:08:16.958Z,95.5
2019-04-06T06:09:17.226Z,95.5
2019-04-06T06:10:16.500Z,95.4
2019-04-06T06:11:16.554Z,95.5
2019-04-06T06:12:16.932Z,95.5
2019-04-06T06:13:17.201Z,95.4
2019-04-06T06:14:16.608Z,95.3
2019-04-06T06:15:16.892Z,95.3
2019-04-06T06:16:17.165Z,95.2
2019-04-06T06:17:16.632Z,95.0
2019-04-06T06:18:27.671Z,94.9
2019-04-06T06:19:17.025Z,94.8
2019-04-06T06:20:16.307Z,94.8
2019-04-06T06:21:16.341Z,94.8
2019-04-06T06:22:16.604Z,94.5
2019-04-06T06:23:16.861Z,94.8
2019-04-06T06:24:17.143Z,94.8
2019-04-06T06:25:16.433Z,94.6
2019-04-06T06:26:16.883Z,95.1
2019-04-06T06:27:17.270Z,94.9
2019-04-06T06:28:16.531Z,94.9
2019-04-06T06:29:16.919Z,95.0
2019-04-06T06:30:17.337Z,95.1
2019-04-06T06:31:17.358Z,95.0
2019-04-06T06:32:16.620Z,94.8
2019-04-06T06:33:16.883Z,94.5
2019-04-06T06:34:17.290Z,94.8
2019-04-06T06:35:16.669Z,94.7
2019-04-06T06:36:16.934Z,94.5
2019-04-06T06:37:17.271Z,94.4
2019-04-06T06:38:16.546Z,94.2
2019-04-06T06:39:16.817Z,94.3
2019-04-06T06:40:17.095Z,94.2
2019-04-06T06:41:17.128Z,94.0
2019-04-06T06:42:16.445Z,93.8
2019-04-06T06:43:16.737Z,93.6
2019-04-06T06:44:17.004Z,93.7
2019-04-06T06:45:16.420Z,93.8
2019-04-06T06:46:16.725Z,93.7
2019-04-06T06:47:16.996Z,93.5
2019-04-06T06:48:16.429Z,93.2
2019-04-06T06:49:16.744Z,93.5
2019-04-06T06:50:17.016Z,93.5
2019-04-06T06:51:17.062Z,93.4
2019-04-06T06:52:16.326Z,93.2
2019-04-06T06:53:16.611Z,93.2
2019-04-06T06:54:16.867Z,93.0
2019-04-06T06:55:17.246Z,92.8
2019-04-06T06:56:16.736Z,92.7
2019-04-06T06:57:17.000Z,92.3
2019-04-06T06:58:25.960Z,92.2
2019-04-06T06:59:16.452Z,92.2
2019-04-06T07:00:16.726Z,91.9
2019-04-06T07:01:16.759Z,91.9
2019-04-06T07:02:17.084Z,91.8
2019-04-06T07:03:16.345Z,91.8
2019-04-06T07:04:16.602Z,91.2
2019-04-06T07:05:16.895Z,91.2
2019-04-06T07:06:17.165Z,90.8
2019-04-06T07:07:16.436Z,90.2
2019-04-06T07:08:16.697Z,89.8
2019-04-06T07:09:16.952Z,89.3
2019-04-06T07:10:17.268Z,89.3
2019-04-06T07:11:16.259Z,88.7
2019-04-06T07:12:16.522Z,88.0
2019-04-06T07:13:16.785Z,87.8
2019-04-06T07:14:17.465Z,87.0
2019-04-06T07:15:17.014Z,86.2
2019-04-06T07:16:16.279Z,86.2
2019-04-06T07:17:16.788Z,85.9
2019-04-06T07:18:17.051Z,85.7
2019-04-06T07:19:16.372Z,85.6
2019-04-06T07:20:16.666Z,84.9
2019-04-06T07:21:17.336Z,84.9
2019-04-06T07:22:16.614Z,84.8
2019-04-06T07:23:16.892Z,84.8
2019-04-06T07:24:17.250Z,84.2
2019-04-06T07:25:16.517Z,83.2
2019-04-06T07:26:16.943Z,82.1
2019-04-06T07:27:17.454Z,81.0
2019-04-06T07:28:16.939Z,80.2
2019-04-06T07:29:17.223Z,79.4
2019-04-06T07:30:16.584Z,78.9
2019-04-06T07:31:16.659Z,78.8
2019-04-06T07:32:17.047Z,79.2
2019-04-06T07:33:16.581Z,78.0
2019-04-06T07:34:16.845Z,77.3
2019-04-06T07:35:17.110Z,77.8
2019-04-06T07:36:16.375Z,77.6
2019-04-06T07:37:16.739Z,76.7
2019-04-06T07:38:16.996Z,75.8
2019-04-06T07:39:16.257Z,75.2
2019-04-06T07:40:16.540Z,74.7
2019-04-06T07:41:16.586Z,74.7
2019-04-06T07:42:16.857Z,74.5
2019-04-06T07:43:17.166Z,73.8
2019-04-06T07:44:16.472Z,73.7
2019-04-06T07:45:16.744Z,73.3
2019-04-06T07:46:17.005Z,72.7
2019-04-06T07:47:16.270Z,72.9
2019-04-06T07:48:16.598Z,72.8
2019-04-06T07:49:17.087Z,73.0
2019-04-06T07:50:16.376Z,72.8
2019-04-06T07:51:16.417Z,72.4
2019-04-06T07:52:16.696Z,72.0
2019-04-06T07:53:16.954Z,71.6
2019-04-06T07:54:17.217Z,71.1
2019-04-06T07:55:16.492Z,71.2
2019-04-06T07:56:16.859Z,70.4
2019-04-06T07:57:17.125Z,70.8
2019-04-06T07:58:16.387Z,71.3
2019-04-06T07:59:16.662Z,70.1
2019-04-06T08:00:17.190Z,70.1
2019-04-06T08:01:17.026Z,70.0
2019-04-06T08:02:16.296Z,70.2
2019-04-06T08:03:16.562Z,69.4
2019-04-06T08:04:16.866Z,69.3
2019-04-06T08:05:17.132Z,71.3
2019-04-06T08:06:16.404Z,71.0
2019-04-06T08:07:16.869Z,70.4
2019-04-06T08:08:17.129Z,70.7
2019-04-06T08:09:16.394Z,70.6
2019-04-06T08:10:16.669Z,70.4
2019-04-06T08:11:16.743Z,69.4
2019-04-06T08:12:17.230Z,70.6
2019-04-06T08:13:16.485Z,69.5
2019-04-06T08:14:16.749Z,68.9
2019-04-06T08:15:17.057Z,68.4
2019-04-06T08:16:16.324Z,68.2
2019-04-06T08:17:16.584Z,69.2
2019-04-06T08:18:17.158Z,69.2
2019-04-06T08:19:16.424Z,68.9
2019-04-06T08:20:16.698Z,67.2
2019-04-06T08:21:18.586Z,66.8
2019-04-06T08:22:16.915Z,66.7
2019-04-06T08:23:17.180Z,67.0
2019-04-06T08:24:16.439Z,66.0
2019-04-06T08:25:16.713Z,65.4
2019-04-06T08:26:17.033Z,65.3
2019-04-06T08:27:16.294Z,64.7
2019-04-06T08:28:16.623Z,64.7
2019-04-06T08:29:16.924Z,64.3
2019-04-06T08:30:17.201Z,64.2
2019-04-06T08:31:16.277Z,63.9
2019-04-06T08:32:16.605Z,64.5
2019-04-06T08:33:16.876Z,64.0
2019-04-06T08:34:17.147Z,63.4
2019-04-06T08:35:26.554Z,64.0
2019-04-06T08:36:17.083Z,63.8
2019-04-06T08:37:16.351Z,63.7
2019-04-06T08:38:16.676Z,63.3
2019-04-06T08:39:16.948Z,63.3
2019-04-06T08:40:17.209Z,62.8
2019-04-06T08:41:16.314Z,62.3
2019-04-06T08:42:16.605Z,62.0
2019-04-06T08:43:16.879Z,62.2
2019-04-06T08:44:17.136Z,62.0
2019-04-06T08:45:16.499Z,61.8
2019-04-06T08:46:16.761Z,62.3
2019-04-06T08:47:17.019Z,61.7
2019-04-06T08:48:16.293Z,61.5
2019-04-06T08:49:16.815Z,61.1
2019-04-06T08:50:17.082Z,61.6
2019-04-06T08:51:17.142Z,60.9
2019-04-06T08:52:16.766Z,60.7
2019-04-06T08:53:17.028Z,60.8
2019-04-06T08:54:16.477Z,61.5
2019-04-06T08:55:17.019Z,63.2
2019-04-06T08:56:16.341Z,63.1
2019-04-06T08:57:16.624Z,61.7
2019-04-06T08:58:16.896Z,61.2
2019-04-06T08:59:17.168Z,60.6
2019-04-06T09:00:16.472Z,60.1
2019-04-06T09:01:16.682Z,59.5
2019-04-06T09:02:16.961Z,59.3
2019-04-06T09:03:17.255Z,59.5
2019-04-06T09:04:16.728Z,59.0
2019-04-06T09:05:17.005Z,58.6
2019-04-06T09:06:16.552Z,59.5
2019-04-06T09:07:17.014Z,59.5
2019-04-06T09:08:16.278Z,59.5
2019-04-06T09:09:16.540Z,59.3
2019-04-06T09:10:16.808Z,59.1
2019-04-06T09:11:16.911Z,58.8
2019-04-06T09:12:17.227Z,58.4
2019-04-06T09:13:16.594Z,58.5
2019-04-06T09:14:16.857Z,59.5
2019-04-06T09:15:17.161Z,58.6
2019-04-06T09:16:16.632Z,58.4
2019-04-06T09:17:16.906Z,58.3
2019-04-06T09:18:17.183Z,58.9
2019-04-06T09:19:16.440Z,59.2
2019-04-06T09:20:16.785Z,59.2
2019-04-06T09:21:16.804Z,58.6
2019-04-06T09:22:17.123Z,58.7
2019-04-06T09:23:16.509Z,57.2
2019-04-06T09:24:16.799Z,57.5
2019-04-06T09:25:17.073Z,58.1
2019-04-06T09:26:16.703Z,58.5
2019-04-06T09:27:16.995Z,58.0
2019-04-06T09:28:16.259Z,57.8
2019-04-06T09:29:24.560Z,59.9
2019-04-06T09:30:16.296Z,58.2
2019-04-06T09:31:16.358Z,57.5
2019-04-06T09:32:16.666Z,60.6
2019-04-06T09:33:16.940Z,58.6
2019-04-06T09:34:17.209Z,57.7
2019-04-06T09:35:16.474Z,58.3
2019-04-06T09:36:16.754Z,58.2
2019-04-06T09:37:17.012Z,56.8
2019-04-06T09:38:16.448Z,56.3
2019-04-06T09:39:16.713Z,56.7
2019-04-06T09:40:16.978Z,56.9
2019-04-06T09:41:17.124Z,58.5
2019-04-06T09:42:16.394Z,59.0
2019-04-06T09:43:16.661Z,59.9
2019-04-06T09:44:17.140Z,60.1
2019-04-06T09:45:16.433Z,59.2
2019-04-06T09:46:16.872Z,59.0
2019-04-06T09:47:17.125Z,58.8
2019-04-06T09:48:16.395Z,60.6
2019-04-06T09:49:16.871Z,62.8
2019-04-06T09:50:17.172Z,62.9
2019-04-06T09:51:17.268Z,63.3
2019-04-06T09:52:16.689Z,62.6
2019-04-06T09:53:16.951Z,62.4
2019-04-06T09:54:17.224Z,62.2
2019-04-06T09:55:16.498Z,61.0
2019-04-06T09:56:16.773Z,60.5
2019-04-06T09:57:17.026Z,60.0
2019-04-06T09:58:16.523Z,59.2
2019-04-06T09:59:16.800Z,58.9
2019-04-06T10:00:17.088Z,59.0
2019-04-06T10:01:17.119Z,58.5
2019-04-06T10:02:16.413Z,59.8
2019-04-06T10:03:16.676Z,59.5
2019-04-06T10:04:16.945Z,59.9
2019-04-06T10:05:17.264Z,59.2
2019-04-06T10:06:16.567Z,59.2
2019-04-06T10:07:16.846Z,59.4
2019-04-06T10:08:17.119Z,57.4
2019-04-06T10:09:16.388Z,56.5
2019-04-06T10:10:16.655Z,57.0
2019-04-06T10:11:16.932Z,57.9
2019-04-06T10:12:17.212Z,58.3
2019-04-06T10:13:16.492Z,59.0
2019-04-06T10:14:16.753Z,58.2
2019-04-06T10:15:17.026Z,57.8
2019-04-06T10:16:16.284Z,55.8
2019-04-06T10:17:16.543Z,56.0
2019-04-06T10:18:16.810Z,56.0
2019-04-06T10:19:17.082Z,56.3
2019-04-06T10:20:16.356Z,56.5
2019-04-06T10:21:16.509Z,57.8
2019-04-06T10:22:16.766Z,57.7
2019-04-06T10:23:17.076Z,58.4
2019-04-06T10:24:16.340Z,57.8
2019-04-06T10:25:16.608Z,58.2
2019-04-06T10:26:16.909Z,57.6
2019-04-06T10:27:17.575Z,57.6
2019-04-06T10:28:16.841Z,57.0
2019-04-06T10:29:17.112Z,57.9
2019-04-06T10:30:16.385Z,59.0
2019-04-06T10:31:16.436Z,58.9
2019-04-06T10:32:16.939Z,57.7
2019-04-06T10:33:17.196Z,56.2
2019-04-06T10:34:16.467Z,55.5
2019-04-06T10:35:16.746Z,56.2
2019-04-06T10:36:17.010Z,56.9
2019-04-06T10:37:16.283Z,57.7
2019-04-06T10:38:16.559Z,57.3
2019-04-06T10:39:16.887Z,55.6
2019-04-06T10:40:17.173Z,58.0
2019-04-06T10:41:17.291Z,57.7
2019-04-06T10:42:16.554Z,57.2
2019-04-06T10:43:17.111Z,58.3
2019-04-06T10:44:16.389Z,58.2
2019-04-06T10:45:16.651Z,58.0
2019-04-06T10:46:17.076Z,58.4
2019-04-06T10:47:16.351Z,58.2
2019-04-06T10:48:16.887Z,58.9
2019-04-06T10:49:17.444Z,58.8
2019-04-06T10:50:17.067Z,58.8
2019-04-06T10:51:16.770Z,58.6
2019-04-06T10:52:17.030Z,58.5
2019-04-06T10:53:16.301Z,58.3
2019-04-06T10:54:16.575Z,58.5
2019-04-06T10:55:16.855Z,58.7
2019-04-06T10:56:17.162Z,58.5
2019-04-06T10:57:16.461Z,56.8
2019-04-06T10:58:16.734Z,56.8
2019-04-06T10:59:17.280Z,56.0
2019-04-06T11:00:16.618Z,55.2
2019-04-06T11:01:16.607Z,54.9
2019-04-06T11:02:16.876Z,53.6
2019-04-06T11:03:17.144Z,53.7
2019-04-06T11:04:16.406Z,54.8
2019-04-06T11:05:16.692Z,53.2
2019-04-06T11:06:17.321Z,52.9
2019-04-06T11:07:16.632Z,53.1
2019-04-06T11:08:16.895Z,54.4
2019-04-06T11:09:17.165Z,53.7
2019-04-06T11:10:16.791Z,53.5
2019-04-06T11:11:20.730Z,53.0
2019-04-06T11:12:17.037Z,52.8
2019-04-06T11:13:16.303Z,53.1
2019-04-06T11:14:16.565Z,52.1
2019-04-06T11:15:17.049Z,52.7
2019-04-06T11:16:16.318Z,51.3
2019-04-06T11:17:16.580Z,51.6
2019-04-06T11:18:16.860Z,51.4
2019-04-06T11:19:17.110Z,51.0
2019-04-06T11:20:16.382Z,51.1
2019-04-06T11:21:16.705Z,50.2
2019-04-06T11:22:17.604Z,50.4
2019-04-06T11:23:16.869Z,50.7
2019-04-06T11:24:17.167Z,50.5
2019-04-06T11:25:16.452Z,51.2
2019-04-06T11:26:16.716Z,50.0
2019-04-06T11:27:17.339Z,49.5
2019-04-06T11:28:16.641Z,49.6
2019-04-06T11:29:16.907Z,50.4
2019-04-06T11:30:17.730Z,51.4
2019-04-06T11:31:17.802Z,50.5
2019-04-06T11:32:17.071Z,50.6
2019-04-06T11:33:16.339Z,50.3
2019-04-06T11:34:16.606Z,50.9
2019-04-06T11:35:17.135Z,50.7
2019-04-06T11:36:16.716Z,49.8
2019-04-06T11:37:16.979Z,50.8
2019-04-06T11:38:17.232Z,51.5
2019-04-06T11:39:16.599Z,51.5
2019-04-06T11:40:17.129Z,51.3
2019-04-06T11:41:16.910Z,51.6
2019-04-06T11:42:17.166Z,51.5
2019-04-06T11:43:16.420Z,52.0
2019-04-06T11:44:16.683Z,51.5
2019-04-06T11:45:16.944Z,51.9
2019-04-06T11:46:17.637Z,52.3
2019-04-06T11:47:17.204Z,53.1
2019-04-06T11:48:16.819Z,53.8
2019-04-06T11:49:17.085Z,53.8
2019-04-06T11:50:16.373Z,54.0
2019-04-06T11:51:16.409Z,54.6
2019-04-06T11:52:16.678Z,54.8
2019-04-06T11:53:17.215Z,55.0
2019-04-06T11:54:16.476Z,55.0
2019-04-06T11:55:16.739Z,55.0
2019-04-06T11:56:17.013Z,55.1
2019-04-06T11:57:16.270Z,55.5
2019-04-06T11:58:16.598Z,55.4
2019-04-06T11:59:16.984Z,55.6
2019-04-06T12:00:27.483Z,55.9
2019-04-06T12:01:16.300Z,55.5
2019-04-06T12:02:16.575Z,55.4
2019-04-06T12:03:16.856Z,55.5
2019-04-06T12:04:17.131Z,55.4
2019-04-06T12:05:16.400Z,56.2
2019-04-06T12:06:17.044Z,55.1
2019-04-06T12:07:16.303Z,54.9
2019-04-06T12:08:16.920Z,55.0
2019-04-06T12:09:17.191Z,54.5
2019-04-06T12:10:16.472Z,55.1
2019-04-06T12:11:16.506Z,54.8
2019-04-06T12:12:16.767Z,54.9
2019-04-06T12:13:17.040Z,54.5
2019-04-06T12:14:16.460Z,53.9
2019-04-06T12:15:16.730Z,54.1
2019-04-06T12:16:17.013Z,54.0
2019-04-06T12:17:16.797Z,53.5
2019-04-06T12:18:18.573Z,54.3
2019-04-06T12:19:16.911Z,53.7
2019-04-06T12:20:17.182Z,53.2
2019-04-06T12:21:17.511Z,53.4
2019-04-06T12:22:16.785Z,53.0
2019-04-06T12:23:17.428Z,53.5
2019-04-06T12:24:16.862Z,53.0
2019-04-06T12:25:17.140Z,52.8
2019-04-06T12:26:16.454Z,52.2
2019-04-06T12:27:16.728Z,52.6
2019-04-06T12:28:16.987Z,53.0
2019-04-06T12:29:17.257Z,52.8
2019-04-06T12:30:16.545Z,52.8
2019-04-06T12:31:16.564Z,52.7
2019-04-06T12:32:16.831Z,52.6
2019-04-06T12:33:17.087Z,52.5
2019-04-06T12:34:16.354Z,52.2
2019-04-06T12:35:16.624Z,51.8
2019-04-06T12:36:16.886Z,52.0
2019-04-06T12:37:17.164Z,51.8
2019-04-06T12:38:16.699Z,51.3
2019-04-06T12:39:17.105Z,50.5
2019-04-06T12:40:16.383Z,49.2
2019-04-06T12:41:16.418Z,49.6
2019-04-06T12:42:16.698Z,49.1
2019-04-06T12:43:16.963Z,49.8
2019-04-06T12:44:17.231Z,48.8
2019-04-06T12:45:16.516Z,49.1
2019-04-06T12:46:16.975Z,48.7
2019-04-06T12:47:17.628Z,49.5
2019-04-06T12:48:17.348Z,49.0
2019-04-06T12:49:16.780Z,48.5
2019-04-06T12:50:17.249Z,48.6
2019-04-06T12:51:17.295Z,48.3
2019-04-06T12:52:16.928Z,48.4
2019-04-06T12:53:17.186Z,48.8
2019-04-06T12:54:19.195Z,48.9
2019-04-06T12:55:16.516Z,48.2
2019-04-06T12:56:16.788Z,47.9
2019-04-06T12:57:17.048Z,48.0
2019-04-06T12:58:16.686Z,48.5
2019-04-06T12:59:16.993Z,49.0
2019-04-06T13:00:16.272Z,49.1
2019-04-06T13:01:16.728Z,49.0
2019-04-06T13:02:16.985Z,49.5
2019-04-06T13:03:17.255Z,49.4
2019-04-06T13:04:16.517Z,49.3
2019-04-06T13:05:16.808Z,49.8
2019-04-06T13:06:17.079Z,49.6
2019-04-06T13:07:16.516Z,50.0
2019-04-06T13:08:16.794Z,49.7
2019-04-06T13:09:17.060Z,50.0
2019-04-06T13:10:16.336Z,49.3
2019-04-06T13:11:19.926Z,49.5
2019-04-06T13:12:17.267Z,49.1
2019-04-06T13:13:16.528Z,48.8
2019-04-06T13:14:16.803Z,49.7
2019-04-06T13:15:17.084Z,49.0
2019-04-06T13:16:16.607Z,48.8
2019-04-06T13:17:16.883Z,48.9
2019-04-06T13:18:17.264Z,48.9